Time;durP1;ratioP1;P1;durP2;ratioP2;P2;SDS_P1;SDS_P2;PMS_P1;PMS_P2;Temp;Humidity;BMP_temperature;BMP_pressure;BME280_temperature;BME280_humidity;BME280_pressure;Samples;Min_cycle;Max_cycle;Signal;HPM_P1;HPM_P2
2022/10/12 00:01:23;;;;;;;806.57;744.87;;;13.60;41.50;;;;;;4937201;29;21019;-69
2022/10/12 00:03:49;;;;;;;971.40;883.43;;;13.60;41.80;;;;;;4936182;29;20529;-69
2022/10/12 00:06:21;;;;;;;845.63;771.83;;;13.60;42.00;;;;;;4937389;29;20544;-69
2022/10/12 00:08:48;;;;;;;604.83;565.87;;;13.60;42.10;;;;;;4937426;29;20928;-69
2022/10/12 00:11:17;;;;;;;755.57;710.23;;;13.70;41.60;;;;;;4934585;29;20501;-70
2022/10/12 00:13:43;;;;;;;533.03;496.87;;;13.60;40.60;;;;;;4937338;29;20469;-70
2022/10/12 00:16:10;;;;;;;825.50;765.00;;;13.60;41.40;;;;;;4937412;29;20430;-69
2022/10/12 00:18:36;;;;;;;677.43;638.83;;;13.60;40.90;;;;;;4937693;29;20202;-70
2022/10/12 00:21:13;;;;;;;695.43;647.53;;;13.60;41.20;;;;;;4936994;29;20441;-70
2022/10/12 00:23:39;;;;;;;814.33;749.23;;;13.50;41.50;;;;;;4937125;29;20178;-70
2022/10/12 00:26:18;;;;;;;557.23;521.27;;;13.50;41.80;;;;;;4935830;29;20422;-70
2022/10/12 00:28:44;;;;;;;504.90;474.73;;;13.50;41.90;;;;;;4935742;29;20798;-70
2022/10/12 00:31:15;;;;;;;1021.40;923.97;;;13.50;41.50;;;;;;4936664;29;20445;-70
2022/10/12 00:33:41;;;;;;;774.13;714.13;;;13.50;41.00;;;;;;4936939;29;20428;-70
2022/10/12 00:36:11;;;;;;;679.60;638.83;;;13.40;41.20;;;;;;4935632;29;21006;-70
2022/10/12 00:38:36;;;;;;;672.70;632.77;;;13.40;41.20;;;;;;4936767;29;21018;-70
2022/10/12 00:41:02;;;;;;;555.87;526.07;;;13.30;41.60;;;;;;4936345;29;20496;-70
2022/10/12 00:43:34;;;;;;;445.60;418.57;;;13.10;43.90;;;;;;4936881;29;20174;-70
2022/10/12 00:46:04;;;;;;;779.70;721.13;;;13.20;44.10;;;;;;4936750;29;20449;-69
2022/10/12 00:48:30;;;;;;;791.80;740.23;;;13.10;44.00;;;;;;4936621;29;20433;-70
2022/10/12 00:50:58;;;;;;;725.33;672.57;;;13.10;43.50;;;;;;4936696;29;20430;-70
2022/10/12 00:53:27;;;;;;;604.10;566.53;;;13.10;44.10;;;;;;4936557;29;20414;-70
2022/10/12 00:55:59;;;;;;;571.80;538.07;;;13.10;44.10;;;;;;4936507;29;20414;-70
2022/10/12 00:58:27;;;;;;;766.00;713.23;;;13.10;43.80;;;;;;4936441;29;20469;-69
2022/10/12 01:00:53;;;;;;;653.47;611.37;;;13.10;44.10;;;;;;4936086;29;20887;-70
2022/10/12 01:03:21;;;;;;;594.73;557.50;;;12.90;43.90;;;;;;4936314;29;20428;-70
2022/10/12 01:05:47;;;;;;;557.10;523.30;;;12.80;45.80;;;;;;4936403;29;20182;-71
2022/10/12 01:08:12;;;;;;;541.30;503.00;;;12.80;44.50;;;;;;4935319;29;20951;-71
2022/10/12 01:10:38;;;;;;;597.57;559.13;;;12.70;44.50;;;;;;4936336;29;20510;-71
2022/10/12 01:13:04;;;;;;;721.43;671.30;;;12.70;44.30;;;;;;4935969;29;20256;-71
2022/10/12 01:15:37;;;;;;;448.07;421.07;;;12.60;44.30;;;;;;4934829;29;20668;-71
2022/10/12 01:18:15;;;;;;;640.27;600.90;;;12.50;44.30;;;;;;4936030;29;20473;-71
2022/10/12 01:20:59;;;;;;;542.43;512.67;;;12.30;45.00;;;;;;4935818;29;20429;-71
2022/10/12 01:24:11;;;;;;;634.50;597.30;;;12.10;45.90;;;;;;4936257;29;20457;-71
2022/10/12 01:27:01;;;;;;;557.57;526.57;;;11.90;46.20;;;;;;4913505;29;20421;-71
2022/10/12 01:30:00;;;;;;;603.70;566.90;;;11.80;47.10;;;;;;4935992;29;20836;-71
2022/10/12 01:32:44;;;;;;;611.23;577.43;;;11.80;47.20;;;;;;4935554;29;20461;-70
2022/10/12 01:35:36;;;;;;;647.37;607.77;;;11.70;47.70;;;;;;4935914;29;20793;-71
2022/10/12 01:38:10;;;;;;;562.37;527.13;;;11.50;49.20;;;;;;4934602;29;20434;-71
2022/10/12 01:40:38;;;;;;;684.50;640.87;;;11.50;52.70;;;;;;4936573;29;20420;-71
2022/10/12 01:43:04;;;;;;;741.10;689.50;;;11.50;52.70;;;;;;4981065;23;20594;-70
2022/10/12 01:45:30;;;;;;;521.27;488.27;;;11.60;53.40;;;;;;4973990;28;20847;-70
2022/10/12 01:47:55;;;;;;;568.63;530.90;;;11.80;54.10;;;;;;4973994;28;20210;-71
2022/10/12 01:50:30;;;;;;;762.50;710.83;;;11.90;53.10;;;;;;4973949;28;20169;-70
2022/10/12 01:53:10;;;;;;;607.50;567.17;;;11.90;54.10;;;;;;4973710;28;20664;-71
2022/10/12 01:56:12;;;;;;;597.70;559.23;;;12.00;54.80;;;;;;4972491;28;20795;-70
2022/10/12 01:58:57;;;;;;;632.87;589.17;;;12.00;55.50;;;;;;4973724;28;20521;-71
2022/10/12 02:01:49;;;;;;;407.53;379.60;;;12.10;54.70;;;;;;4973814;28;20430;-71
2022/10/12 02:04:19;;;;;;;751.07;701.63;;;12.20;55.80;;;;;;4972492;28;20427;-71
2022/10/12 02:06:50;;;;;;;773.83;718.83;;;12.40;54.00;;;;;;4973750;28;20492;-70
2022/10/12 02:09:31;;;;;;;520.97;486.63;;;12.40;53.50;;;;;;4973986;28;20420;-71
2022/10/12 02:12:02;;;;;;;908.47;844.10;;;12.40;53.50;;;;;;4973556;28;20445;-71
2022/10/12 02:14:36;;;;;;;686.80;640.47;;;12.50;53.60;;;;;;4972756;28;20429;-71
2022/10/12 02:17:06;;;;;;;695.37;648.20;;;12.50;53.60;;;;;;4973818;28;20416;-70
2022/10/12 02:19:38;;;;;;;621.47;580.50;;;12.50;52.80;;;;;;4973504;28;20879;-70
2022/10/12 02:22:06;;;;;;;806.27;749.97;;;12.40;51.80;;;;;;4973167;28;20432;-70
2022/10/12 02:24:35;;;;;;;594.03;558.23;;;12.20;53.30;;;;;;4973369;28;20417;-70
2022/10/12 02:27:01;;;;;;;735.10;687.90;;;12.20;53.30;;;;;;4973369;28;20417;-70
2022/10/12 02:29:35;;;;;;;459.30;431.13;;;12.30;53.40;;;;;;4973261;28;20475;-70
2022/10/12 02:32:27;;;;;;;413.57;384.57;;;12.40;53.50;;;;;;4972798;28;20585;-70
2022/10/12 02:35:07;;;;;;;776.43;719.53;;;12.50;52.10;;;;;;4969543;28;20424;-70
2022/10/12 02:37:52;;;;;;;594.17;557.37;;;12.60;50.80;;;;;;4973169;28;20418;-71
2022/10/12 02:40:25;;;;;;;370.03;345.23;;;12.60;50.00;;;;;;4973131;28;20794;-70
2022/10/12 02:42:56;;;;;;;693.60;645.90;;;12.60;50.00;;;;;;4971360;28;20552;-70
2022/10/12 02:45:23;;;;;;;823.77;761.07;;;12.60;48.70;;;;;;4973055;28;20494;-70
2022/10/12 02:47:52;;;;;;;555.73;514.87;;;12.50;48.60;;;;;;4973372;28;20920;-70
2022/10/12 02:50:20;;;;;;;686.80;642.60;;;12.60;49.40;;;;;;4973148;28;20910;-71
2022/10/12 02:52:47;;;;;;;756.27;704.60;;;12.60;48.20;;;;;;4972830;28;20439;-70
2022/10/12 02:55:13;;;;;;;438.93;407.60;;;12.70;47.30;;;;;;4971873;28;20425;-70
2022/10/12 02:57:38;;;;;;;697.00;647.33;;;12.70;47.60;;;;;;4973116;28;20424;-70
2022/10/12 03:00:04;;;;;;;742.03;686.47;;;12.70;47.10;;;;;;4972891;28;20226;-70
2022/10/12 03:02:30;;;;;;;647.93;603.53;;;12.70;47.20;;;;;;4971473;28;20284;-70
2022/10/12 03:04:55;;;;;;;424.10;393.77;;;12.70;46.80;;;;;;4973164;28;20452;-70
2022/10/12 03:07:21;;;;;;;797.83;742.37;;;12.70;47.20;;;;;;4973054;28;20209;-70
2022/10/12 03:09:47;;;;;;;412.10;383.73;;;12.70;46.90;;;;;;4973016;28;20661;-69
2022/10/12 03:12:12;;;;;;;598.13;554.70;;;12.80;47.40;;;;;;4972717;28;20664;-70
2022/10/12 03:14:38;;;;;;;508.83;472.40;;;12.80;47.40;;;;;;4972864;28;20234;-70
2022/10/12 03:17:03;;;;;;;745.00;693.27;;;12.80;47.00;;;;;;4972982;28;20184;-69
2022/10/12 03:19:29;;;;;;;787.10;731.47;;;12.90;45.90;;;;;;4972834;28;20201;-70
2022/10/12 03:21:55;;;;;;;606.03;561.03;;;12.90;46.20;;;;;;4972559;28;20442;-71
2022/10/12 03:24:20;;;;;;;276.57;257.17;;;12.80;47.20;;;;;;4971619;28;20181;-70
2022/10/12 03:26:46;;;;;;;658.17;614.83;;;12.80;47.90;;;;;;4972776;28;20556;-69
2022/10/12 03:29:12;;;;;;;827.47;764.33;;;12.90;46.40;;;;;;4972719;28;20183;-70
2022/10/12 03:31:37;;;;;;;803.63;742.43;;;12.90;46.60;;;;;;4972525;28;20441;-69
2022/10/12 03:34:03;;;;;;;594.43;554.47;;;12.90;46.30;;;;;;4972800;28;20189;-70
2022/10/12 03:36:29;;;;;;;801.17;744.20;;;12.90;46.60;;;;;;4972822;28;20179;-71
2022/10/12 03:38:55;;;;;;;481.40;451.50;;;12.80;47.10;;;;;;4972568;28;20197;-70
2022/10/12 03:41:21;;;;;;;702.03;648.13;;;13.00;46.80;;;;;;4972359;28;20843;-69
2022/10/12 03:43:46;;;;;;;876.23;808.87;;;13.00;46.30;;;;;;4972744;28;20677;-71
2022/10/12 03:46:13;;;;;;;566.53;529.87;;;13.00;45.90;;;;;;4976337;28;20181;-70
2022/10/12 03:48:38;;;;;;;503.00;469.80;;;13.00;46.30;;;;;;4976270;28;20173;-70
2022/10/12 03:51:04;;;;;;;532.53;499.10;;;13.00;46.00;;;;;;4975898;28;20988;-71
2022/10/12 03:53:30;;;;;;;540.63;506.17;;;13.00;45.90;;;;;;4976219;28;20417;-70
2022/10/12 03:55:56;;;;;;;311.40;289.10;;;13.00;45.80;;;;;;4975004;28;20188;-70
2022/10/12 03:58:21;;;;;;;405.03;377.00;;;13.00;46.60;;;;;;4975941;28;20864;-70
2022/10/12 04:00:54;;;;;;;300.13;279.90;;;13.00;45.90;;;;;;4976242;28;20644;-70
2022/10/12 04:03:20;;;;;;;552.10;512.93;;;13.10;46.00;;;;;;4976182;28;20204;-70
2022/10/12 04:05:53;;;;;;;514.20;484.73;;;13.10;45.40;;;;;;4975997;28;20916;-70
2022/10/12 04:08:19;;;;;;;946.80;870.93;;;12.90;46.10;;;;;;4975849;28;20420;-69
2022/10/12 04:10:45;;;;;;;660.23;616.90;;;12.90;46.30;;;;;;4975669;28;20420;-69
2022/10/12 04:13:10;;;;;;;783.60;726.33;;;12.90;47.20;;;;;;4974601;28;20204;-70
2022/10/12 04:15:36;;;;;;;535.93;501.57;;;13.00;46.80;;;;;;4975813;28;20211;-71
2022/10/12 04:18:01;;;;;;;733.83;682.10;;;13.10;46.70;;;;;;4975957;28;20681;-70
2022/10/12 04:20:27;;;;;;;804.40;747.17;;;13.10;45.30;;;;;;4975839;28;20213;-70
2022/10/12 04:22:52;;;;;;;825.17;764.63;;;13.20;45.10;;;;;;4975215;28;20275;-70
2022/10/12 04:25:18;;;;;;;615.60;571.40;;;13.20;45.30;;;;;;4975350;28;20553;-69
2022/10/12 04:27:43;;;;;;;904.57;832.53;;;13.20;45.30;;;;;;4974160;28;20177;-68
2022/10/12 04:30:10;;;;;;;733.53;684.23;;;13.20;44.10;;;;;;4975833;28;20263;-69
2022/10/12 04:32:35;;;;;;;672.87;626.27;;;13.10;44.10;;;;;;4976571;28;20283;-73
2022/10/12 04:35:01;;;;;;;493.77;463.37;;;13.10;44.20;;;;;;4975911;28;20473;-72
2022/10/12 04:37:27;;;;;;;721.90;675.07;;;13.20;44.50;;;;;;4975667;28;20192;-71
2022/10/12 04:39:52;;;;;;;633.57;593.17;;;13.20;44.10;;;;;;4975929;28;20209;-70
2022/10/12 04:42:18;;;;;;;459.70;430.50;;;13.20;44.50;;;;;;4973775;28;20609;-68
2022/10/12 04:44:43;;;;;;;497.97;469.07;;;13.20;44.70;;;;;;4975451;28;20540;-72
2022/10/12 04:47:09;;;;;;;459.57;429.50;;;13.20;44.20;;;;;;4975548;28;20201;-72
2022/10/12 04:49:34;;;;;;;639.73;596.07;;;13.20;45.00;;;;;;4974082;28;20246;-72
2022/10/12 04:52:00;;;;;;;645.97;600.63;;;13.30;44.20;;;;;;4975006;28;20204;-71
2022/10/12 04:54:25;;;;;;;590.93;551.50;;;13.30;44.20;;;;;;4975290;28;20197;-70
2022/10/12 04:56:51;;;;;;;798.37;743.90;;;13.30;44.20;;;;;;4974467;28;20185;-72
2022/10/12 04:59:16;;;;;;;825.87;772.33;;;13.30;43.50;;;;;;4975084;28;20238;-72
2022/10/12 05:01:42;;;;;;;656.07;611.60;;;13.20;43.20;;;;;;4974595;28;20204;-71
2022/10/12 05:04:08;;;;;;;601.40;560.20;;;13.40;42.90;;;;;;4975309;28;20180;-72
2022/10/12 05:06:33;;;;;;;481.27;451.37;;;13.40;42.70;;;;;;4975086;28;20169;-72
2022/10/12 05:08:59;;;;;;;705.73;660.73;;;13.40;42.60;;;;;;4974670;28;20193;-71
2022/10/12 05:11:24;;;;;;;651.10;605.93;;;13.40;42.30;;;;;;4974171;28;20207;-71
2022/10/12 05:13:50;;;;;;;560.23;526.30;;;13.30;42.70;;;;;;4974563;28;20180;-72
2022/10/12 05:16:15;;;;;;;368.03;347.17;;;13.40;42.50;;;;;;4974442;28;20187;-70
2022/10/12 05:18:41;;;;;;;604.70;566.97;;;13.40;41.90;;;;;;4974549;28;20207;-70
2022/10/12 05:21:07;;;;;;;511.70;481.70;;;13.40;41.80;;;;;;4973262;28;20199;-68
2022/10/12 05:23:32;;;;;;;523.93;488.73;;;13.50;41.40;;;;;;4974603;28;20219;-69
2022/10/12 05:25:58;;;;;;;731.20;682.57;;;13.50;41.40;;;;;;4974521;28;20181;-69
2022/10/12 05:28:23;;;;;;;639.37;600.80;;;13.50;40.70;;;;;;4974519;28;20196;-73
2022/10/12 05:30:50;;;;;;;746.97;690.03;;;13.50;41.70;;;;;;4974064;28;20643;-70
2022/10/12 05:33:16;;;;;;;910.00;839.50;;;13.50;41.20;;;;;;4974470;28;20209;-70
2022/10/12 05:35:43;;;;;;;647.37;610.87;;;13.50;41.50;;;;;;4974196;28;20937;-72
2022/10/12 05:38:09;;;;;;;669.37;625.47;;;13.40;41.70;;;;;;4974013;28;20413;-73
2022/10/12 05:40:34;;;;;;;719.67;676.80;;;13.50;41.70;;;;;;4973913;28;20439;-71
2022/10/12 05:43:00;;;;;;;515.07;483.40;;;13.50;41.50;;;;;;4973625;28;20216;-72
2022/10/12 05:45:25;;;;;;;757.67;701.70;;;13.50;42.00;;;;;;4974331;28;20596;-71
2022/10/12 05:47:51;;;;;;;588.83;550.30;;;13.60;41.20;;;;;;4974004;28;20556;-71
2022/10/12 05:50:16;;;;;;;554.37;516.40;;;13.60;41.10;;;;;;4973815;28;20641;-72
2022/10/12 05:52:42;;;;;;;687.40;645.03;;;13.60;41.70;;;;;;4972232;28;20265;-71
2022/10/12 05:55:08;;;;;;;701.10;658.53;;;13.70;40.40;;;;;;4974072;28;20183;-68
2022/10/12 05:57:33;;;;;;;582.47;543.33;;;13.60;40.70;;;;;;4962539;28;20220;-69
2022/10/12 05:59:59;;;;;;;661.17;622.77;;;13.60;39.40;;;;;;4972029;28;20864;-69
2022/10/12 06:02:24;;;;;;;430.77;406.07;;;13.60;40.10;;;;;;4973114;28;20201;-70
2022/10/12 06:04:50;;;;;;;520.50;487.70;;;13.60;39.90;;;;;;4973729;28;20173;-70
2022/10/12 06:07:15;;;;;;;664.67;616.33;;;13.70;39.50;;;;;;4973888;28;20254;-70
2022/10/12 06:09:43;;;;;;;677.67;635.53;;;13.80;39.50;;;;;;4973884;28;20195;-71
2022/10/12 06:12:09;;;;;;;732.77;677.40;;;13.80;39.50;;;;;;4973178;28;20291;-70
2022/10/12 06:14:35;;;;;;;873.07;802.70;;;13.80;39.70;;;;;;4972118;28;20500;-70
2022/10/12 06:17:00;;;;;;;706.40;663.10;;;13.80;39.60;;;;;;4973854;28;20770;-69
2022/10/12 06:19:26;;;;;;;448.27;423.90;;;13.90;39.10;;;;;;4972454;28;20209;-70
2022/10/12 06:21:51;;;;;;;572.00;537.20;;;14.00;38.20;;;;;;4973680;28;20243;-71
2022/10/12 06:24:17;;;;;;;754.60;706.77;;;14.00;36.30;;;;;;4972980;28;20321;-71
2022/10/12 06:26:43;;;;;;;743.80;695.50;;;14.00;36.80;;;;;;4972378;28;20335;-70
2022/10/12 06:29:08;;;;;;;588.33;547.70;;;14.00;36.30;;;;;;4973140;28;20181;-69
2022/10/12 06:31:34;;;;;;;644.03;603.60;;;14.00;35.90;;;;;;4972833;28;20451;-70
2022/10/12 06:33:59;;;;;;;695.73;650.77;;;14.10;34.60;;;;;;4973000;28;20268;-69
2022/10/12 06:36:25;;;;;;;690.27;648.37;;;14.10;34.60;;;;;;4973921;28;20730;-70
2022/10/12 06:38:51;;;;;;;634.80;589.67;;;14.10;35.40;;;;;;4973286;28;20213;-71
2022/10/12 06:41:16;;;;;;;746.07;692.13;;;14.20;34.70;;;;;;4972870;28;20493;-71
2022/10/12 06:43:42;;;;;;;656.57;615.80;;;14.20;33.40;;;;;;4968634;28;20193;-70
2022/10/12 06:46:08;;;;;;;571.60;532.10;;;14.30;33.90;;;;;;4972384;28;20185;-70
2022/10/12 06:48:33;;;;;;;796.77;743.60;;;14.30;33.50;;;;;;4973177;28;20269;-70
2022/10/12 06:50:59;;;;;;;531.13;497.63;;;14.30;32.60;;;;;;4972725;28;20440;-71
2022/10/12 06:53:27;;;;;;;555.03;511.67;;;14.30;32.70;;;;;;4969419;28;20300;-71
2022/10/12 06:55:53;;;;;;;390.67;365.03;;;14.30;32.30;;;;;;4968885;28;20193;-70
2022/10/12 06:58:18;;;;;;;552.23;515.60;;;14.40;32.20;;;;;;4969158;28;20439;-70
2022/10/12 07:00:44;;;;;;;555.93;515.50;;;14.40;31.40;;;;;;4968300;28;20189;-71
2022/10/12 07:03:12;;;;;;;532.57;498.80;;;14.40;31.50;;;;;;4968698;28;20251;-70
2022/10/12 07:05:37;;;;;;;672.37;625.10;;;14.50;30.90;;;;;;4969005;28;20425;-71
2022/10/12 07:08:03;;;;;;;643.13;602.30;;;14.50;31.20;;;;;;4968046;28;20490;-71
2022/10/12 07:10:28;;;;;;;519.97;486.07;;;14.40;30.80;;;;;;4961774;28;20185;-69
2022/10/12 07:12:54;;;;;;;664.50;620.60;;;14.50;30.40;;;;;;4968644;28;20208;-70
2022/10/12 07:15:20;;;;;;;421.37;392.20;;;14.40;30.70;;;;;;4967430;28;20241;-71
2022/10/12 07:17:45;;;;;;;511.83;475.57;;;14.50;31.10;;;;;;4969229;28;20563;-71
2022/10/12 07:20:14;;;;;;;529.17;491.80;;;14.50;30.40;;;;;;4970847;28;20256;-72
2022/10/12 07:22:39;;;;;;;553.70;515.47;;;14.60;29.90;;;;;;4971874;28;20695;-69
2022/10/12 07:25:05;;;;;;;784.47;719.17;;;14.60;29.90;;;;;;4973183;28;20428;-70
2022/10/12 07:27:31;;;;;;;559.43;524.40;;;14.60;29.90;;;;;;4971125;28;20858;-68
2022/10/12 07:29:56;;;;;;;336.50;315.83;;;14.70;30.00;;;;;;4972263;28;20428;-70
2022/10/12 07:32:22;;;;;;;504.53;470.37;;;14.80;29.10;;;;;;4972803;28;20217;-69
2022/10/12 07:34:47;;;;;;;538.40;498.53;;;14.70;29.50;;;;;;4971968;28;20197;-68
2022/10/12 07:37:14;;;;;;;617.77;568.50;;;14.70;29.40;;;;;;4965766;28;20678;-71
2022/10/12 07:39:40;;;;;;;418.97;391.60;;;14.70;28.70;;;;;;4969109;28;20228;-68
2022/10/12 07:42:06;;;;;;;447.57;417.30;;;14.80;28.80;;;;;;4985059;23;22551;-68
2022/10/12 07:44:31;;;;;;;348.40;325.97;;;14.90;28.50;;;;;;4991491;28;21058;-68
2022/10/12 07:46:57;;;;;;;588.13;548.27;;;15.00;28.00;;;;;;4991266;28;20459;-68
2022/10/12 07:49:22;;;;;;;582.90;539.40;;;15.10;27.50;;;;;;4988702;28;20626;-69
2022/10/12 07:51:48;;;;;;;328.90;308.10;;;15.10;27.20;;;;;;4989443;28;20748;-68
2022/10/12 07:54:14;;;;;;;427.97;399.30;;;15.10;27.90;;;;;;4991417;28;20189;-68
2022/10/12 07:56:39;;;;;;;652.03;608.37;;;15.20;27.20;;;;;;4991011;28;20263;-68
2022/10/12 07:59:05;;;;;;;458.30;425.63;;;15.20;26.20;;;;;;4991453;28;20220;-67
2022/10/12 08:01:31;;;;;;;532.07;493.60;;;15.40;26.30;;;;;;4992543;28;20195;-70
2022/10/12 08:03:58;;;;;;;719.40;666.50;;;15.50;26.00;;;;;;4991269;28;20283;-67
2022/10/12 08:06:26;;;;;;;566.87;526.40;;;15.60;26.00;;;;;;4989280;28;20427;-68
2022/10/12 08:08:52;;;;;;;455.00;421.00;;;15.80;25.00;;;;;;4972094;28;20945;-67
2022/10/12 08:11:18;;;;;;;665.97;617.17;;;15.70;25.00;;;;;;4973440;28;20428;-67
2022/10/12 08:13:44;;;;;;;579.93;536.73;;;15.70;24.30;;;;;;4980243;28;20483;-68
2022/10/12 08:16:14;;;;;;;628.03;582.57;;;15.60;24.70;;;;;;4986549;28;20486;-68
2022/10/12 08:18:39;;;;;;;426.60;396.07;;;15.60;24.90;;;;;;4990703;28;20473;-67
2022/10/12 08:21:06;;;;;;;566.07;524.20;;;15.80;24.40;;;;;;4988957;28;20510;-67
2022/10/12 08:23:33;;;;;;;522.00;482.63;;;15.90;24.40;;;;;;4990218;28;20217;-68
2022/10/12 08:25:59;;;;;;;435.23;405.07;;;15.90;24.40;;;;;;4983675;28;20436;-66
2022/10/12 08:28:25;;;;;;;572.83;533.43;;;15.80;24.50;;;;;;4989226;28;20780;-68
2022/10/12 08:30:50;;;;;;;525.60;488.60;;;15.90;24.00;;;;;;4989812;28;20275;-68
2022/10/12 08:33:17;;;;;;;591.67;544.80;;;16.00;23.50;;;;;;4989941;28;20224;-68
2022/10/12 08:35:43;;;;;;;293.03;272.87;;;16.10;24.00;;;;;;4990216;28;20654;-67
2022/10/12 08:38:10;;;;;;;709.33;648.67;;;16.20;23.00;;;;;;4990832;28;20507;-66
2022/10/12 08:41:11;;;;;;;353.83;324.53;;;16.10;22.60;;;;;;4990558;28;20929;-68
2022/10/12 08:43:48;;;;;;;454.73;421.40;;;16.30;23.60;;;;;;4987664;28;20459;-68
2022/10/12 08:46:19;;;;;;;473.17;434.33;;;16.30;23.20;;;;;;4991248;28;20427;-69
2022/10/12 08:49:03;;;;;;;589.93;543.30;;;16.40;22.80;;;;;;4991033;28;20432;-68
2022/10/12 08:51:31;;;;;;;574.03;527.77;;;16.50;21.90;;;;;;4988282;28;20468;-68
2022/10/12 08:54:06;;;;;;;485.17;450.07;;;16.50;21.70;;;;;;4990000;28;20444;-68
2022/10/12 08:56:34;;;;;;;436.10;403.63;;;16.40;22.30;;;;;;4989360;28;21026;-68
2022/10/12 08:59:01;;;;;;;497.60;459.43;;;16.50;22.30;;;;;;4993562;28;20464;-68
2022/10/12 09:01:37;;;;;;;439.57;407.17;;;16.60;21.90;;;;;;4993111;28;20423;-68
2022/10/12 09:04:40;;;;;;;591.73;548.17;;;16.70;21.70;;;;;;4973348;28;20440;-69
2022/10/12 09:07:56;;;;;;;567.00;525.00;;;16.60;21.50;;;;;;4990575;28;20748;-69
2022/10/12 09:10:27;;;;;;;591.63;541.83;;;16.60;22.00;;;;;;4955786;28;20436;-69
2022/10/12 09:13:00;;;;;;;555.47;514.27;;;16.60;21.50;;;;;;4972294;28;20450;-68
2022/10/12 09:15:33;;;;;;;479.50;439.60;;;16.50;21.80;;;;;;4986064;28;20431;-67
2022/10/12 09:18:02;;;;;;;572.97;527.43;;;16.30;22.60;;;;;;4994003;28;20795;-68
2022/10/12 09:20:44;;;;;;;623.33;575.67;;;16.50;21.50;;;;;;4994114;28;20471;-69
2022/10/12 09:23:32;;;;;;;563.17;522.87;;;16.70;21.40;;;;;;4993030;28;20482;-68
2022/10/12 09:26:18;;;;;;;609.00;559.77;;;16.70;20.60;;;;;;4993093;28;20431;-68
2022/10/12 09:28:56;;;;;;;479.53;443.53;;;16.50;21.50;;;;;;4998693;28;20434;-69
2022/10/12 09:31:40;;;;;;;482.07;446.33;;;16.60;21.50;;;;;;5013456;28;20426;-69
2022/10/12 09:34:08;;;;;;;297.23;271.97;;;16.60;21.40;;;;;;4974354;28;20416;-69
2022/10/12 09:36:36;;;;;;;418.97;385.70;;;16.70;21.80;;;;;;4974306;28;20489;-68
2022/10/12 09:39:06;;;;;;;445.97;410.10;;;16.80;21.40;;;;;;4973327;28;20472;-68
2022/10/12 09:41:35;;;;;;;515.37;474.43;;;16.90;21.20;;;;;;4974400;28;20440;-67
2022/10/12 09:44:03;;;;;;;516.97;477.80;;;16.70;20.80;;;;;;4994055;28;20543;-68
2022/10/12 09:47:01;;;;;;;510.43;472.97;;;16.80;21.70;;;;;;4994003;28;20420;-68
2022/10/12 09:49:42;;;;;;;436.17;401.80;;;17.00;20.90;;;;;;4987143;28;20526;-68
2022/10/12 09:52:08;;;;;;;533.67;492.10;;;17.20;21.20;;;;;;4992530;28;20956;-68
2022/10/12 09:54:34;;;;;;;262.83;243.73;;;17.10;19.50;;;;;;4993639;28;20586;-68
2022/10/12 09:57:00;;;;;;;573.53;531.87;;;17.10;20.00;;;;;;4994018;28;20455;-68
2022/10/12 09:59:29;;;;;;;391.77;357.37;;;17.20;19.50;;;;;;4993392;28;20303;-68
2022/10/12 10:02:07;;;;;;;299.00;274.53;;;17.30;19.40;;;;;;4977415;28;20570;-68
2022/10/12 10:04:33;;;;;;;426.33;394.50;;;17.40;19.40;;;;;;4972813;28;20591;-68
2022/10/12 10:07:21;;;;;;;397.30;367.37;;;17.30;19.10;;;;;;4972655;28;20416;-68
2022/10/12 10:10:01;;;;;;;373.70;344.10;;;17.30;19.50;;;;;;4984939;28;20518;-69
2022/10/12 10:12:27;;;;;;;528.03;487.93;;;17.30;19.70;;;;;;4990444;28;20447;-68
2022/10/12 10:14:55;;;;;;;582.57;531.30;;;17.10;20.30;;;;;;4990890;28;20501;-68
2022/10/12 10:17:32;;;;;;;452.57;416.07;;;17.20;19.00;;;;;;4992555;28;20794;-68
2022/10/12 10:20:02;;;;;;;508.17;469.80;;;17.20;19.60;;;;;;4993953;28;20825;-68
2022/10/12 10:22:29;;;;;;;433.93;404.30;;;17.20;19.80;;;;;;4992116;28;20452;-68
2022/10/12 10:24:57;;;;;;;550.13;508.90;;;17.30;19.80;;;;;;4993893;28;20416;-67
2022/10/12 10:27:32;;;;;;;564.03;522.77;;;17.40;18.70;;;;;;4994156;28;20421;-68
2022/10/12 10:30:20;;;;;;;599.53;553.17;;;17.50;19.20;;;;;;4993965;28;20473;-68
2022/10/12 10:32:46;;;;;;;468.13;432.00;;;17.50;18.60;;;;;;4993355;28;20456;-68
2022/10/12 10:35:12;;;;;;;571.87;537.13;;;17.40;18.90;;;;;;4993307;28;20423;-68
2022/10/12 10:37:48;;;;;;;197.63;181.70;;;17.60;19.00;;;;;;4993207;28;20438;-68
2022/10/12 10:40:21;;;;;;;324.13;299.80;;;17.60;19.00;;;;;;4993458;28;20215;-68
2022/10/12 10:42:50;;;;;;;463.83;429.03;;;17.50;19.20;;;;;;4991274;28;20474;-67
2022/10/12 10:45:32;;;;;;;454.17;417.83;;;17.50;19.20;;;;;;4993274;28;20424;-68
2022/10/12 10:48:04;;;;;;;633.83;587.80;;;17.80;19.20;;;;;;4992912;28;20436;-69
2022/10/12 10:50:37;;;;;;;389.73;361.83;;;17.70;18.60;;;;;;4992693;28;20435;-68
2022/10/12 10:53:25;;;;;;;470.67;432.33;;;17.90;17.90;;;;;;4992364;28;20912;-68
2022/10/12 10:56:06;;;;;;;387.30;359.33;;;17.90;17.50;;;;;;4992588;28;20427;-68
2022/10/12 10:58:44;;;;;;;594.87;554.57;;;17.80;17.30;;;;;;4992878;28;20531;-69
2022/10/12 11:01:16;;;;;;;485.20;447.10;;;18.00;17.90;;;;;;4993000;28;20416;-67
2022/10/12 11:03:55;;;;;;;628.63;584.27;;;18.00;17.40;;;;;;4992730;28;20459;-67
2022/10/12 11:06:38;;;;;;;493.33;452.97;;;18.10;17.40;;;;;;4994083;28;20913;-67
2022/10/12 11:09:10;;;;;;;632.03;581.63;;;18.20;17.50;;;;;;4993015;28;20419;-68
2022/10/12 11:11:39;;;;;;;480.10;441.57;;;18.30;16.90;;;;;;4992424;28;20478;-68
2022/10/12 11:14:13;;;;;;;500.33;459.40;;;18.50;17.10;;;;;;4991949;28;20427;-68
2022/10/12 11:16:50;;;;;;;486.37;446.77;;;18.40;16.40;;;;;;4992121;28;20459;-67
2022/10/12 11:19:58;;;;;;;555.10;512.97;;;18.60;17.00;;;;;;4991909;28;20478;-68
2022/10/12 11:22:47;;;;;;;500.80;467.50;;;18.50;15.50;;;;;;4990836;28;20872;-69
2022/10/12 11:25:38;;;;;;;542.60;503.97;;;18.70;16.60;;;;;;4991953;28;20484;-68
2022/10/12 11:28:06;;;;;;;507.93;466.30;;;19.10;15.90;;;;;;4992238;28;20444;-69
2022/10/12 11:30:42;;;;;;;539.73;498.20;;;19.20;15.90;;;;;;4992026;28;20435;-68
2022/10/12 11:33:14;;;;;;;457.37;423.53;;;19.10;14.80;;;;;;4992405;28;20438;-68
2022/10/12 11:35:44;;;;;;;660.87;610.57;;;18.90;15.40;;;;;;4992142;28;20594;-68
2022/10/12 11:38:28;;;;;;;576.27;529.77;;;19.00;15.50;;;;;;4992327;28;20948;-68
2022/10/12 11:41:02;;;;;;;463.37;432.33;;;19.20;14.90;;;;;;4991745;28;20495;-69
2022/10/12 11:43:34;;;;;;;657.93;604.03;;;19.30;14.20;;;;;;4990716;28;20531;-68
2022/10/12 11:46:04;;;;;;;314.57;290.90;;;19.20;14.50;;;;;;4992052;28;20436;-69
2022/10/12 11:48:44;;;;;;;605.40;554.13;;;18.80;14.60;;;;;;4992204;28;20415;-68
2022/10/12 11:51:11;;;;;;;466.93;433.33;;;18.70;15.10;;;;;;4991682;28;20960;-68
2022/10/12 11:53:55;;;;;;;325.13;299.70;;;18.80;15.70;;;;;;4992008;28;20839;-69
2022/10/12 11:56:44;;;;;;;518.30;478.40;;;18.90;15.20;;;;;;4991814;28;20434;-68
2022/10/12 11:59:19;;;;;;;476.03;439.73;;;18.80;14.60;;;;;;4992193;28;20530;-67
2022/10/12 12:01:49;;;;;;;389.93;361.97;;;18.80;14.60;;;;;;4990465;28;20799;-68
2022/10/12 12:04:28;;;;;;;538.13;494.47;;;18.80;15.00;;;;;;4992015;28;20491;-69
2022/10/12 12:07:40;;;;;;;459.37;424.00;;;18.80;15.90;;;;;;4995070;28;20792;-69
2022/10/12 12:10:29;;;;;;;587.50;545.03;;;18.90;14.90;;;;;;4977081;28;20432;-71
2022/10/12 12:13:11;;;;;;;557.30;513.53;;;18.90;14.90;;;;;;4990357;28;20444;-69
2022/10/12 12:16:01;;;;;;;542.47;499.00;;;18.90;14.50;;;;;;4991432;28;20454;-68
2022/10/12 12:18:32;;;;;;;451.13;416.23;;;18.70;15.10;;;;;;4992431;28;20519;-68
2022/10/12 12:21:03;;;;;;;493.53;456.70;;;18.80;15.80;;;;;;4994872;28;20447;-68
2022/10/12 12:23:38;;;;;;;495.13;457.67;;;19.00;14.40;;;;;;4993761;28;20446;-68
2022/10/12 12:26:08;;;;;;;437.90;406.97;;;18.80;13.90;;;;;;4975453;28;20408;-68